createdAt,value
2023-03-29T00:01:57.693Z,1.50
2023-03-29T00:06:03.481Z,1.75
2023-03-29T00:10:07.698Z,1.33
2023-03-29T00:14:12.141Z,1.83
2023-03-29T00:18:15.893Z,1.40
2023-03-29T00:22:18.881Z,2.25
2023-03-29T00:26:22.414Z,2.03
2023-03-29T00:30:27.338Z,1.73
2023-03-29T00:34:31.860Z,2.50
2023-03-29T00:38:35.289Z,1.95
2023-03-29T00:42:39.382Z,2.58
2023-03-29T00:46:43.797Z,2.22
2023-03-29T00:50:52.341Z,2.08
2023-03-29T00:54:57.818Z,1.67
2023-03-29T00:59:05.502Z,2.35
2023-03-29T01:03:15.333Z,2.22
2023-03-29T01:07:24.522Z,1.92
2023-03-29T01:11:30.463Z,2.05
2023-03-29T01:15:34.798Z,2.10
2023-03-29T01:19:45.524Z,2.38
2023-03-29T01:24:19.512Z,1.85
2023-03-29T01:28:29.042Z,1.73
2023-03-29T01:32:36.697Z,1.75
2023-03-29T01:36:42.717Z,2.53
2023-03-29T01:40:46.439Z,1.90
2023-03-29T01:44:58.024Z,2.60
2023-03-29T01:49:06.026Z,2.75
2023-03-29T01:53:13.649Z,1.67
2023-03-29T01:57:18.334Z,2.20
2023-03-29T02:01:27.649Z,1.52
2023-03-29T02:05:33.174Z,2.67
2023-03-29T02:09:40.134Z,1.98
2023-03-29T02:13:43.314Z,2.92
2023-03-29T02:17:49.757Z,1.73
2023-03-29T02:22:02.059Z,2.25
2023-03-29T02:26:07.065Z,2.92
2023-03-29T02:30:12.405Z,2.10
2023-03-29T02:34:23.804Z,1.30
2023-03-29T02:38:28.692Z,1.40
2023-03-29T02:42:33.480Z,2.20
2023-03-29T02:46:37.989Z,2.45
2023-03-29T02:50:46.870Z,2.40
2023-03-29T02:54:51.822Z,2.78
2023-03-29T02:58:54.979Z,2.50
2023-03-29T03:03:00.662Z,2.03
2023-03-29T03:07:06.788Z,1.85
2023-03-29T03:11:10.403Z,2.40
2023-03-29T03:15:13.808Z,1.90
2023-03-29T03:19:17.115Z,2.20
2023-03-29T03:23:21.505Z,1.77
2023-03-29T03:27:27.790Z,1.67
2023-03-29T03:31:30.957Z,2.00
2023-03-29T03:35:35.115Z,1.58
2023-03-29T03:39:39.868Z,1.58
2023-03-29T03:43:46.064Z,2.22
2023-03-29T03:47:49.577Z,2.55
2023-03-29T03:51:53.167Z,2.83
2023-03-29T03:55:58.363Z,2.00
2023-03-29T04:00:01.697Z,2.05
2023-03-29T04:04:05.089Z,2.25
2023-03-29T04:08:08.360Z,2.05
2023-03-29T04:12:13.198Z,2.17
2023-03-29T04:16:16.220Z,2.60
2023-03-29T04:20:19.997Z,1.73
2023-03-29T04:24:24.633Z,3.33
2023-03-29T04:28:29.596Z,3.17
2023-03-29T04:32:32.582Z,3.08
2023-03-29T04:36:36.639Z,1.90
2023-03-29T04:40:39.791Z,1.85
2023-03-29T04:44:44.381Z,2.63
2023-03-29T04:48:47.397Z,2.47
2023-03-29T04:52:51.060Z,4.18
2023-03-29T04:56:54.583Z,4.30
2023-03-29T05:01:00.028Z,3.05
2023-03-29T05:05:03.091Z,3.03
2023-03-29T05:09:09.351Z,3.05
2023-03-29T05:13:12.811Z,2.95
2023-03-29T05:17:17.549Z,2.78
2023-03-29T05:21:20.853Z,3.20
2023-03-29T05:25:26.107Z,3.22
2023-03-29T05:29:29.067Z,3.15
2023-03-29T05:33:34.006Z,1.80
2023-03-29T05:37:37.085Z,2.83
2023-03-29T05:41:40.783Z,3.05
2023-03-29T05:45:43.838Z,2.88
2023-03-29T05:49:48.796Z,2.95
2023-03-29T05:53:52.319Z,2.65
2023-03-29T05:57:56.024Z,2.67
2023-03-29T06:02:00.480Z,2.88
2023-03-29T06:06:06.155Z,3.10
2023-03-29T06:10:10.715Z,2.83
2023-03-29T06:15:10.515Z,2.75
2023-03-29T06:19:13.667Z,2.42
2023-03-29T06:23:18.359Z,2.63
2023-03-29T06:27:21.260Z,2.42
2023-03-29T06:31:24.968Z,3.55
2023-03-29T06:35:28.581Z,2.35
2023-03-29T06:39:33.543Z,4.03
2023-03-29T06:43:36.728Z,3.15
2023-03-29T06:47:40.391Z,3.00
2023-03-29T06:51:43.343Z,2.88
2023-03-29T06:55:56.102Z,2.72
2023-03-29T07:04:05.088Z,2.15
2023-03-29T07:08:14.195Z,3.45
2023-03-29T07:12:19.552Z,3.15
2023-03-29T07:16:23.328Z,3.33
2023-03-29T07:20:27.858Z,2.33
2023-03-29T07:24:30.755Z,2.97
2023-03-29T07:28:37.629Z,2.45
2023-03-29T07:32:44.460Z,3.28
2023-03-29T07:36:48.139Z,3.28
2023-03-29T07:40:51.078Z,2.83
2023-03-29T07:44:56.114Z,3.75
2023-03-29T07:48:59.152Z,4.65
2023-03-29T07:53:03.765Z,5.30
2023-03-29T07:57:07.009Z,3.55
2023-03-29T08:01:18.853Z,4.57
2023-03-29T08:05:37.944Z,3.42
2023-03-29T08:09:45.293Z,3.53
2023-03-29T08:13:48.210Z,2.95
2023-03-29T08:17:53.058Z,3.40
2023-03-29T08:21:56.013Z,4.93
2023-03-29T08:26:00.118Z,3.63
2023-03-29T08:30:03.264Z,3.47
2023-03-29T08:34:08.080Z,5.07
2023-03-29T08:38:12.652Z,3.20
2023-03-29T08:42:35.772Z,3.30
2023-03-29T08:46:45.327Z,2.55
2023-03-29T08:50:55.730Z,2.67
2023-03-29T08:55:01.701Z,2.03
2023-03-29T08:59:08.360Z,2.33
2023-03-29T09:03:18.420Z,2.30
2023-03-29T09:07:25.956Z,2.42
2023-03-29T09:11:44.527Z,2.00
2023-03-29T09:15:56.809Z,2.35
2023-03-29T09:20:09.634Z,2.50
2023-03-29T09:32:41.300Z,2.63
2023-03-29T09:36:52.534Z,2.78
2023-03-29T09:41:04.745Z,1.90
2023-03-29T09:45:09.721Z,2.07
2023-03-29T09:49:18.229Z,2.35
2023-03-29T09:53:22.962Z,1.75
2023-03-29T09:57:31.175Z,2.13
2023-03-29T10:01:41.864Z,2.15
2023-03-29T10:05:48.317Z,2.45
2023-03-29T10:09:55.226Z,2.10
2023-03-29T10:14:04.550Z,1.70
2023-03-29T10:18:13.717Z,1.50
2023-03-29T10:22:20.570Z,1.90
2023-03-29T10:26:29.682Z,2.20
2023-03-29T10:30:38.196Z,1.85
2023-03-29T10:34:41.603Z,1.73
2023-03-29T10:38:46.303Z,1.42
2023-03-29T10:42:50.861Z,1.33
2023-03-29T10:46:56.089Z,1.55
2023-03-29T10:51:02.062Z,1.38
2023-03-29T10:55:07.240Z,1.35
2023-03-29T10:59:31.249Z,1.55
2023-03-29T11:04:04.471Z,1.40
2023-03-29T11:08:20.085Z,2.00
2023-03-29T11:12:30.669Z,1.85
2023-03-29T11:16:41.348Z,1.50
2023-03-29T11:20:57.567Z,1.67
2023-03-29T11:25:19.294Z,1.52
2023-03-29T11:29:30.131Z,1.55
2023-03-29T11:33:46.764Z,1.65
2023-03-29T11:37:58.590Z,1.90
2023-03-29T11:42:09.828Z,1.20
2023-03-29T11:46:18.049Z,1.48
2023-03-29T11:50:25.252Z,1.90
2023-03-29T11:54:36.661Z,1.98
2023-03-29T11:58:44.714Z,1.63
2023-03-29T12:02:52.177Z,2.10
2023-03-29T12:07:06.927Z,2.95
2023-03-29T12:11:20.031Z,1.40
2023-03-29T12:15:25.714Z,1.58
2023-03-29T12:19:32.898Z,1.58
2023-03-29T12:23:36.021Z,2.03
2023-03-29T12:27:49.332Z,2.08
2023-03-29T12:32:01.959Z,1.98
2023-03-29T12:36:22.034Z,1.45
2023-03-29T12:40:29.164Z,1.70
2023-03-29T12:44:34.915Z,1.20
2023-03-29T12:48:40.074Z,1.55
2023-03-29T12:52:44.411Z,1.25
2023-03-29T12:56:58.902Z,1.77
2023-03-29T13:01:09.427Z,1.38
2023-03-29T13:05:31.980Z,1.38
2023-03-29T13:09:48.204Z,1.45
2023-03-29T13:13:52.969Z,1.67
2023-03-29T13:18:05.565Z,1.65
2023-03-29T13:22:21.845Z,1.30
2023-03-29T13:26:44.239Z,1.02
2023-03-29T13:30:59.567Z,1.35
2023-03-29T13:35:15.337Z,1.45
2023-03-29T13:39:23.789Z,0.90
2023-03-29T13:43:34.283Z,1.55
2023-03-29T13:47:55.009Z,1.27
2023-03-29T13:52:17.320Z,1.45
2023-03-29T13:56:27.019Z,2.22
2023-03-29T14:00:37.353Z,1.42
2023-03-29T14:04:46.336Z,2.08
2023-03-29T14:08:51.082Z,1.42
2023-03-29T14:12:56.946Z,1.30
2023-03-29T14:17:02.357Z,1.70
2023-03-29T14:21:06.927Z,1.38
2023-03-29T14:25:17.475Z,1.45
2023-03-29T14:29:21.854Z,1.55
2023-03-29T14:33:27.991Z,1.30
2023-03-29T14:37:31.705Z,1.75
2023-03-29T14:41:39.444Z,1.25
2023-03-29T14:45:42.980Z,1.88
2023-03-29T14:49:47.443Z,1.83
2023-03-29T14:53:51.220Z,1.60
2023-03-29T14:57:58.057Z,1.33
2023-03-29T15:02:01.396Z,1.70
2023-03-29T15:06:06.817Z,1.58
2023-03-29T15:10:18.951Z,1.45
2023-03-29T15:14:27.009Z,1.87
2023-03-29T15:18:35.132Z,1.35
2023-03-29T15:22:38.940Z,1.40
2023-03-29T15:26:43.362Z,1.40
2023-03-29T15:30:57.395Z,1.67
2023-03-29T15:35:10.884Z,1.92
2023-03-29T15:39:15.461Z,1.50
2023-03-29T15:43:20.329Z,1.55
2023-03-29T15:47:25.560Z,1.20
2023-03-29T15:51:29.203Z,1.10
2023-03-29T15:55:33.526Z,1.60
2023-03-29T15:59:37.338Z,1.13
2023-03-29T16:03:41.998Z,1.73
2023-03-29T16:07:45.642Z,1.67
2023-03-29T16:11:49.599Z,1.75
2023-03-29T16:15:52.680Z,2.05
2023-03-29T16:19:57.293Z,1.35
2023-03-29T16:24:00.757Z,1.55
2023-03-29T16:28:04.967Z,1.77
2023-03-29T16:32:08.357Z,2.13
2023-03-29T16:36:13.455Z,1.98
2023-03-29T16:40:17.041Z,2.10
2023-03-29T16:44:23.782Z,2.22
2023-03-29T16:48:27.261Z,1.77
2023-03-29T16:52:32.646Z,1.75
2023-03-29T16:56:37.158Z,2.25
2023-03-29T17:00:41.026Z,2.13
2023-03-29T17:04:44.561Z,1.95
2023-03-29T17:08:50.542Z,2.08
2023-03-29T17:12:53.744Z,1.80
2023-03-29T17:16:56.797Z,3.28
2023-03-29T17:21:01.837Z,2.28
2023-03-29T17:25:07.909Z,2.42
2023-03-29T17:29:10.907Z,2.20
2023-03-29T17:33:15.289Z,2.53
2023-03-29T17:37:18.697Z,1.63
2023-03-29T17:41:24.046Z,1.85
2023-03-29T17:45:27.379Z,2.70
2023-03-29T17:49:30.365Z,2.28
2023-03-29T17:53:33.690Z,2.20
2023-03-29T17:57:38.317Z,2.20
2023-03-29T18:01:42.037Z,1.90
2023-03-29T18:05:45.273Z,2.67
2023-03-29T18:09:48.462Z,2.80
2023-03-29T18:13:56.126Z,2.80
2023-03-29T18:17:59.343Z,3.42
2023-03-29T18:22:02.491Z,2.72
2023-03-29T18:26:08.703Z,2.95
2023-03-29T18:30:16.739Z,2.95
2023-03-29T18:34:22.763Z,3.40
2023-03-29T18:38:25.977Z,2.90
2023-03-29T18:42:29.387Z,2.30
2023-03-29T18:46:34.547Z,3.33
2023-03-29T18:50:40.671Z,2.55
2023-03-29T18:54:44.287Z,2.90
2023-03-29T18:58:48.213Z,2.47
2023-03-29T19:02:52.869Z,2.13
2023-03-29T19:06:56.952Z,2.83
2023-03-29T19:11:03.527Z,2.53
2023-03-29T19:15:07.906Z,2.65
2023-03-29T19:19:13.339Z,2.65
2023-03-29T19:23:16.385Z,3.78
2023-03-29T19:27:20.703Z,2.20
2023-03-29T19:31:23.999Z,2.95
2023-03-29T19:35:28.956Z,2.70
2023-03-29T19:39:32.232Z,6.47
2023-03-29T19:43:36.100Z,11.52
2023-03-29T19:47:44.150Z,10.52
2023-03-29T19:51:48.708Z,6.95
2023-03-29T19:55:52.464Z,5.55
2023-03-29T19:59:55.764Z,4.60
2023-03-29T20:03:59.864Z,4.50
2023-03-29T20:08:04.750Z,4.25
2023-03-29T20:12:07.753Z,4.50
2023-03-29T20:16:13.926Z,4.05
2023-03-29T20:20:17.210Z,3.58
2023-03-29T20:24:21.885Z,4.20
2023-03-29T20:28:27.497Z,4.88
2023-03-29T20:32:31.183Z,5.15
2023-03-29T20:36:34.582Z,3.88
2023-03-29T20:40:41.703Z,4.95
2023-03-29T20:44:50.585Z,5.13
2023-03-29T20:48:54.457Z,5.57
2023-03-29T20:53:03.768Z,4.85
2023-03-29T20:57:09.062Z,3.78
2023-03-29T21:01:14.789Z,4.28
2023-03-29T21:05:18.544Z,4.70
2023-03-29T21:09:23.680Z,4.32
2023-03-29T21:13:28.436Z,4.80
2023-03-29T21:17:31.432Z,5.30
2023-03-29T21:21:35.539Z,4.57
2023-03-29T21:25:38.539Z,5.45
2023-03-29T21:30:13.795Z,5.97
2023-03-29T21:34:16.738Z,4.88
2023-03-29T21:38:20.250Z,6.28
2023-03-29T21:42:23.551Z,5.95
2023-03-29T21:46:28.730Z,4.97
2023-03-29T21:50:33.785Z,6.60
2023-03-29T21:54:37.293Z,5.20
2023-03-29T21:58:40.745Z,5.13
2023-03-29T22:02:47.581Z,5.85
2023-03-29T22:06:50.693Z,5.78
2023-03-29T22:10:57.072Z,5.53
2023-03-29T22:15:00.097Z,5.57
2023-03-29T22:19:05.827Z,5.97
2023-03-29T22:23:08.777Z,5.00
2023-03-29T22:27:12.820Z,5.90
2023-03-29T22:31:17.776Z,5.70
2023-03-29T22:35:22.417Z,6.07
2023-03-29T22:39:25.378Z,5.65
2023-03-29T22:43:29.081Z,6.18
2023-03-29T22:47:32.081Z,5.20
2023-03-29T22:51:37.480Z,6.22
2023-03-29T22:55:40.638Z,5.50
2023-03-29T22:59:43.990Z,5.63
2023-03-29T23:03:46.986Z,5.03
2023-03-29T23:07:52.117Z,5.28
2023-03-29T23:11:54.993Z,6.30
2023-03-29T23:16:00.405Z,5.32
2023-03-29T23:20:05.978Z,6.35
2023-03-29T23:24:10.794Z,5.97
2023-03-29T23:28:13.887Z,5.63
2023-03-29T23:32:17.859Z,5.88
2023-03-29T23:36:23.082Z,5.93
2023-03-29T23:40:28.184Z,6.13
2023-03-29T23:44:31.132Z,5.97
2023-03-29T23:48:34.843Z,5.63
2023-03-29T23:52:38.196Z,6.13
2023-03-29T23:56:43.286Z,4.82
